QFA462 YMML-YSSY
Flight info
| Callsign | QFA462 |
|---|---|
| Flight time | 1h 2m |
| Altitude | 37000 |
| Route | ML H129 DOSEL Y59 RIVET |
| Aircraft | B738/M-SDE2E3FGHIRWXY/LB1 |
Departure
| Time | 2026-05-04 06:16 |
|---|---|
| Airport | Melbourne Airport (YMML) |
Arrival
| Time | 2026-05-04 07:18 |
|---|---|
| Airport | Sydney Kingsford Smith International Airport (YSSY) |
| Time | Latitude | Longitude | Altitude | Speed | Heading |
|---|---|---|---|---|---|
| 2026-05-04 05:20 | -37.66837 | 144.84927 | 394 ft | 0 kts | 82° |
| 2026-05-04 06:03 | -37.66839 | 144.84909 | 392 ft | 3 kts | 91° |
| 2026-05-04 06:05 | -37.66802 | 144.84879 | 398 ft | 0 kts | 263° |
| 2026-05-04 06:11 | -37.66653 | 144.84603 | 399 ft | 14 kts | 261° |
| 2026-05-04 06:11 | -37.66668 | 144.84484 | 398 ft | 14 kts | 262° |
| 2026-05-04 06:13 | -37.67261 | 144.84280 | 380 ft | 17 kts | 171° |
| 2026-05-04 06:14 | -37.67857 | 144.84239 | 362 ft | 16 kts | 261° |
| 2026-05-04 06:14 | -37.67877 | 144.84063 | 356 ft | 16 kts | 265° |
| 2026-05-04 06:15 | -37.67834 | 144.83962 | 358 ft | 13 kts | 341° |
| 2026-05-04 06:15 | -37.67760 | 144.83946 | 360 ft | 24 kts | 352° |
| 2026-05-04 06:15 | -37.67373 | 144.83875 | 370 ft | 90 kts | 352° |
| 2026-05-04 06:15 | -37.66561 | 144.83718 | 446 ft | 139 kts | 353° |
| 2026-05-04 06:16 | -37.65559 | 144.83537 | 1035 ft | 152 kts | 355° |
| 2026-05-04 06:16 | -37.64472 | 144.83397 | 1803 ft | 160 kts | 352° |
| 2026-05-04 06:16 | -37.63375 | 144.83301 | 2741 ft | 156 kts | 353° |
| 2026-05-04 06:16 | -37.62261 | 144.83195 | 3426 ft | 166 kts | 351° |
| 2026-05-04 06:17 | -37.61078 | 144.83090 | 4006 ft | 174 kts | 351° |
| 2026-05-04 06:17 | -37.59839 | 144.83081 | 4566 ft | 185 kts | 359° |
| 2026-05-04 06:17 | -37.58513 | 144.83419 | 4958 ft | 209 kts | 8° |
| 2026-05-04 06:17 | -37.57019 | 144.84016 | 5179 ft | 239 kts | 13° |
| 2026-05-04 06:18 | -37.55426 | 144.84814 | 5813 ft | 251 kts | 15° |
| 2026-05-04 06:18 | -37.53816 | 144.85675 | 6653 ft | 252 kts | 17° |
| 2026-05-04 06:18 | -37.52183 | 144.86585 | 7239 ft | 265 kts | 17° |
| 2026-05-04 06:20 | -37.39990 | 144.97184 | 11113 ft | 356 kts | 51° |
| 2026-05-04 06:20 | -37.38609 | 144.99779 | 11835 ft | 360 kts | 51° |
| 2026-05-04 06:21 | -37.32723 | 145.10631 | 14387 ft | 383 kts | 51° |
| 2026-05-04 06:21 | -37.31198 | 145.13412 | 15016 ft | 388 kts | 51° |
| 2026-05-04 06:22 | -37.29671 | 145.16214 | 15827 ft | 388 kts | 51° |
| 2026-05-04 06:22 | -37.28133 | 145.19011 | 16591 ft | 390 kts | 51° |
| 2026-05-04 06:25 | -37.06554 | 145.56813 | 24008 ft | 428 kts | 46° |
| 2026-05-04 06:25 | -37.04814 | 145.59837 | 24429 ft | 430 kts | 46° |
| 2026-05-04 06:26 | -37.03085 | 145.62841 | 24828 ft | 433 kts | 46° |
| 2026-05-04 06:26 | -37.01317 | 145.65908 | 25206 ft | 436 kts | 46° |
| 2026-05-04 06:26 | -36.99514 | 145.69033 | 25600 ft | 438 kts | 46° |
| 2026-05-04 06:26 | -36.97747 | 145.72092 | 25972 ft | 441 kts | 45° |
| 2026-05-04 06:27 | -36.90460 | 145.84682 | 27357 ft | 452 kts | 45° |
| 2026-05-04 06:28 | -36.88618 | 145.87860 | 27736 ft | 454 kts | 45° |
| 2026-05-04 06:28 | -36.86750 | 145.91077 | 28072 ft | 457 kts | 45° |
| 2026-05-04 06:28 | -36.84886 | 145.94284 | 28364 ft | 460 kts | 45° |
| 2026-05-04 06:28 | -36.83000 | 145.97526 | 28714 ft | 462 kts | 45° |
| 2026-05-04 06:29 | -36.81106 | 146.00780 | 29079 ft | 463 kts | 45° |
| 2026-05-04 06:29 | -36.79208 | 146.04036 | 29342 ft | 467 kts | 45° |
| 2026-05-04 06:29 | -36.77287 | 146.07328 | 29590 ft | 470 kts | 45° |
| 2026-05-04 06:29 | -36.75359 | 146.10628 | 29883 ft | 472 kts | 45° |
| 2026-05-04 06:30 | -36.73418 | 146.13949 | 30162 ft | 474 kts | 45° |
| 2026-05-04 06:30 | -36.71473 | 146.17277 | 30491 ft | 474 kts | 45° |
| 2026-05-04 06:30 | -36.69540 | 146.20582 | 30840 ft | 473 kts | 45° |
| 2026-05-04 06:30 | -36.67601 | 146.23894 | 31179 ft | 472 kts | 45° |
| 2026-05-04 06:31 | -36.65668 | 146.27189 | 31483 ft | 472 kts | 45° |
| 2026-05-04 06:31 | -36.63725 | 146.30497 | 31792 ft | 472 kts | 45° |
| 2026-05-04 06:31 | -36.61785 | 146.33796 | 32129 ft | 471 kts | 45° |
| 2026-05-04 06:31 | -36.59848 | 146.37089 | 32434 ft | 471 kts | 45° |
| 2026-05-04 06:32 | -36.57906 | 146.40384 | 32695 ft | 472 kts | 45° |
| 2026-05-04 06:33 | -36.44341 | 146.63318 | 34550 ft | 472 kts | 44° |
| 2026-05-04 06:34 | -36.42388 | 146.66608 | 34758 ft | 473 kts | 44° |
| 2026-05-04 06:34 | -36.40432 | 146.69899 | 34969 ft | 473 kts | 44° |
| 2026-05-04 06:34 | -36.38478 | 146.73184 | 35189 ft | 474 kts | 44° |
| 2026-05-04 06:34 | -36.36524 | 146.76466 | 35395 ft | 474 kts | 44° |
| 2026-05-04 06:35 | -36.34560 | 146.79763 | 35588 ft | 475 kts | 44° |
| 2026-05-04 06:36 | -36.20772 | 147.02815 | 36976 ft | 477 kts | 44° |
| 2026-05-04 06:37 | -36.16784 | 147.09448 | 36992 ft | 480 kts | 44° |
| 2026-05-04 06:37 | -36.12819 | 147.16040 | 37000 ft | 476 kts | 44° |
| 2026-05-04 06:38 | -36.08863 | 147.22604 | 37002 ft | 475 kts | 44° |
| 2026-05-04 06:40 | -35.93121 | 147.48593 | 37004 ft | 473 kts | 44° |
| 2026-05-04 06:40 | -35.89143 | 147.55133 | 37008 ft | 474 kts | 44° |
| 2026-05-04 06:41 | -35.85205 | 147.61594 | 37018 ft | 475 kts | 44° |
| 2026-05-04 06:41 | -35.81226 | 147.68105 | 37024 ft | 476 kts | 43° |
| 2026-05-04 06:42 | -35.77229 | 147.74629 | 37021 ft | 478 kts | 43° |
| 2026-05-04 06:44 | -35.61195 | 148.00701 | 37021 ft | 483 kts | 43° |
| 2026-05-04 06:44 | -35.57053 | 148.07404 | 37032 ft | 483 kts | 43° |
| 2026-05-04 06:45 | -35.52976 | 148.13990 | 37024 ft | 484 kts | 43° |
| 2026-05-04 06:45 | -35.48908 | 148.20552 | 37030 ft | 483 kts | 43° |
| 2026-05-04 06:46 | -35.44832 | 148.27115 | 37030 ft | 483 kts | 43° |
| 2026-05-04 06:46 | -35.40748 | 148.33669 | 37025 ft | 483 kts | 43° |
| 2026-05-04 06:48 | -35.24375 | 148.59792 | 37020 ft | 482 kts | 43° |
| 2026-05-04 06:50 | -35.08043 | 148.85664 | 37009 ft | 480 kts | 43° |
| 2026-05-04 06:51 | -35.03948 | 148.92121 | 37011 ft | 480 kts | 43° |
| 2026-05-04 06:51 | -34.99854 | 148.98566 | 37010 ft | 480 kts | 43° |
| 2026-05-04 06:52 | -34.95767 | 149.04991 | 36998 ft | 472 kts | 43° |
| 2026-05-04 06:52 | -34.93793 | 149.08109 | 36983 ft | 454 kts | 43° |
| 2026-05-04 06:52 | -34.91905 | 149.11090 | 36997 ft | 437 kts | 42° |
| 2026-05-04 06:53 | -34.90077 | 149.13968 | 36993 ft | 420 kts | 41° |
| 2026-05-04 06:53 | -34.88305 | 149.16742 | 37010 ft | 413 kts | 41° |
| 2026-05-04 06:53 | -34.84739 | 149.22265 | 37045 ft | 423 kts | 41° |
| 2026-05-04 06:54 | -34.82916 | 149.25094 | 36929 ft | 427 kts | 41° |
| 2026-05-04 06:54 | -34.81090 | 149.27943 | 36542 ft | 426 kts | 42° |
| 2026-05-04 06:54 | -34.79272 | 149.30785 | 36018 ft | 427 kts | 42° |
| 2026-05-04 06:54 | -34.77438 | 149.33644 | 35438 ft | 430 kts | 42° |
| 2026-05-04 06:55 | -34.75602 | 149.36503 | 34940 ft | 431 kts | 42° |
| 2026-05-04 06:55 | -34.73770 | 149.39470 | 34045 ft | 448 kts | 47° |
| 2026-05-04 06:55 | -34.72165 | 149.42830 | 32913 ft | 467 kts | 53° |
| 2026-05-04 06:55 | -34.70633 | 149.46351 | 31929 ft | 476 kts | 54° |
| 2026-05-04 06:56 | -34.69115 | 149.49946 | 31226 ft | 478 kts | 55° |
| 2026-05-04 06:57 | -34.58851 | 149.73671 | 26518 ft | 436 kts | 54° |
| 2026-05-04 06:58 | -34.57448 | 149.76860 | 25796 ft | 432 kts | 54° |
| 2026-05-04 06:58 | -34.56045 | 149.80046 | 25084 ft | 428 kts | 54° |
| 2026-05-04 06:58 | -34.54647 | 149.83221 | 24378 ft | 425 kts | 54° |
| 2026-05-04 06:58 | -34.53258 | 149.86373 | 23679 ft | 422 kts | 54° |
| 2026-05-04 06:59 | -34.51883 | 149.89489 | 22914 ft | 418 kts | 54° |
| 2026-05-04 06:59 | -34.50518 | 149.92583 | 22226 ft | 413 kts | 54° |
| 2026-05-04 06:59 | -34.49175 | 149.95626 | 21608 ft | 406 kts | 54° |
| 2026-05-04 06:59 | -34.47855 | 149.98616 | 21084 ft | 398 kts | 54° |
| 2026-05-04 07:01 | -34.39502 | 150.17434 | 18106 ft | 381 kts | 55° |
| 2026-05-04 07:01 | -34.38244 | 150.20259 | 17623 ft | 381 kts | 56° |
| 2026-05-04 07:02 | -34.36990 | 150.23081 | 17147 ft | 378 kts | 56° |
| 2026-05-04 07:02 | -34.35750 | 150.25869 | 16694 ft | 375 kts | 56° |
| 2026-05-04 07:02 | -34.34522 | 150.28629 | 16257 ft | 371 kts | 56° |
| 2026-05-04 07:02 | -34.33299 | 150.31371 | 15832 ft | 368 kts | 56° |
| 2026-05-04 07:03 | -34.32081 | 150.34099 | 15394 ft | 366 kts | 56° |
| 2026-05-04 07:03 | -34.30879 | 150.36788 | 14963 ft | 363 kts | 56° |
| 2026-05-04 07:03 | -34.29680 | 150.39469 | 14553 ft | 361 kts | 55° |
| 2026-05-04 07:03 | -34.28486 | 150.42136 | 14123 ft | 359 kts | 56° |
| 2026-05-04 07:04 | -34.27300 | 150.44787 | 13705 ft | 357 kts | 56° |
| 2026-05-04 07:04 | -34.26124 | 150.47414 | 13251 ft | 354 kts | 56° |
| 2026-05-04 07:04 | -34.24956 | 150.50024 | 12814 ft | 351 kts | 56° |
| 2026-05-04 07:04 | -34.23798 | 150.52610 | 12383 ft | 346 kts | 56° |
| 2026-05-04 07:05 | -34.22678 | 150.55113 | 11887 ft | 339 kts | 56° |
| 2026-05-04 07:05 | -34.21578 | 150.57571 | 11644 ft | 325 kts | 55° |
| 2026-05-04 07:05 | -34.20527 | 150.59920 | 11476 ft | 311 kts | 55° |
| 2026-05-04 07:05 | -34.19511 | 150.62183 | 11204 ft | 301 kts | 54° |
| 2026-05-04 07:06 | -34.18042 | 150.66802 | 10562 ft | 301 kts | 81° |
| 2026-05-04 07:06 | -34.17977 | 150.69333 | 10173 ft | 301 kts | 83° |
| 2026-05-04 07:06 | -34.17958 | 150.71849 | 9766 ft | 299 kts | 84° |
| 2026-05-04 07:07 | -34.17946 | 150.74363 | 9337 ft | 299 kts | 84° |
| 2026-05-04 07:08 | -34.17749 | 150.91524 | 6905 ft | 286 kts | 84° |
| 2026-05-04 07:09 | -34.17712 | 150.93928 | 6541 ft | 285 kts | 84° |
| 2026-05-04 07:09 | -34.17676 | 150.96301 | 6175 ft | 283 kts | 85° |
| 2026-05-04 07:09 | -34.17642 | 150.98674 | 5755 ft | 282 kts | 85° |
| 2026-05-04 07:09 | -34.17604 | 151.01009 | 5429 ft | 278 kts | 85° |
| 2026-05-04 07:10 | -34.17569 | 151.03292 | 5299 ft | 269 kts | 84° |
| 2026-05-04 07:10 | -34.17533 | 151.05527 | 5077 ft | 266 kts | 84° |
| 2026-05-04 07:12 | -34.17191 | 151.20399 | 3718 ft | 214 kts | 65° |
| 2026-05-04 07:12 | -34.16372 | 151.21691 | 3628 ft | 185 kts | 26° |
| 2026-05-04 07:12 | -34.15200 | 151.22226 | 3531 ft | 178 kts | 3° |
| 2026-05-04 07:12 | -34.13981 | 151.22305 | 3441 ft | 172 kts | 355° |
| 2026-05-04 07:13 | -34.12806 | 151.22251 | 3331 ft | 170 kts | 352° |
| 2026-05-04 07:13 | -34.11628 | 151.22093 | 3054 ft | 170 kts | 348° |
| 2026-05-04 07:13 | -34.10462 | 151.21814 | 2694 ft | 170 kts | 343° |
| 2026-05-04 07:14 | -34.06188 | 151.20461 | 1754 ft | 150 kts | 352° |
| 2026-05-04 07:14 | -34.05152 | 151.20263 | 1739 ft | 152 kts | 351° |
| 2026-05-04 07:15 | -34.04163 | 151.20050 | 1537 ft | 137 kts | 350° |
| 2026-05-04 07:15 | -34.03266 | 151.19838 | 1371 ft | 125 kts | 349° |
| 2026-05-04 07:15 | -34.02438 | 151.19612 | 1267 ft | 126 kts | 348° |
| 2026-05-04 07:15 | -34.01568 | 151.19391 | 1105 ft | 132 kts | 350° |
| 2026-05-04 07:16 | -34.00653 | 151.19150 | 921 ft | 133 kts | 350° |
| 2026-05-04 07:16 | -33.99761 | 151.18924 | 689 ft | 133 kts | 351° |
| 2026-05-04 07:16 | -33.98877 | 151.18697 | 500 ft | 126 kts | 351° |
| 2026-05-04 07:16 | -33.98024 | 151.18474 | 338 ft | 125 kts | 351° |
| 2026-05-04 07:17 | -33.97143 | 151.18247 | 221 ft | 131 kts | 349° |
| 2026-05-04 07:17 | -33.96266 | 151.18023 | 42 ft | 129 kts | 349° |
| 2026-05-04 07:17 | -33.95486 | 151.17822 | 28 ft | 87 kts | 348° |
| 2026-05-04 07:17 | -33.95036 | 151.17705 | 27 ft | 59 kts | 348° |
| 2026-05-04 07:18 | -33.94704 | 151.17643 | 28 ft | 39 kts | 2° |
| 2026-05-04 07:18 | -33.94483 | 151.17696 | 29 ft | 27 kts | 19° |
| 2026-05-04 07:18 | -33.94341 | 151.17737 | 29 ft | 14 kts | 356° |
| 2026-05-04 07:18 | -33.94248 | 151.17709 | 28 ft | 13 kts | 345° |
| 2026-05-04 07:19 | -33.94173 | 151.17686 | 28 ft | 1 kts | 345° |
| 2026-05-04 07:20 | -33.94172 | 151.17685 | 28 ft | 0 kts | 345° |
| 2026-05-04 07:22 | -33.93657 | 151.17548 | 28 ft | 17 kts | 348° |
| 2026-05-04 07:22 | -33.93539 | 151.17518 | 28 ft | 17 kts | 347° |
| 2026-05-04 07:23 | -33.93423 | 151.17506 | 29 ft | 16 kts | 5° |
| 2026-05-04 07:23 | -33.93313 | 151.17486 | 29 ft | 16 kts | 348° |
| 2026-05-04 07:23 | -33.93206 | 151.17459 | 29 ft | 15 kts | 348° |
| 2026-05-04 07:23 | -33.93096 | 151.17431 | 29 ft | 18 kts | 348° |
| 2026-05-04 07:24 | -33.92993 | 151.17425 | 29 ft | 13 kts | 44° |
| 2026-05-04 07:24 | -33.92995 | 151.17531 | 29 ft | 14 kts | 101° |
| 2026-05-04 07:24 | -33.93017 | 151.17656 | 29 ft | 16 kts | 104° |
| 2026-05-04 07:24 | -33.93059 | 151.17781 | 29 ft | 16 kts | 103° |
| 2026-05-04 07:25 | -33.93075 | 151.17864 | 29 ft | 5 kts | 125° |
| 2026-05-04 07:26 | -33.93147 | 151.17857 | 29 ft | 0 kts | 191° |